sensor_id;sensor_type;location;lat;lon;timestamp;P1;durP1;ratioP1;P2;durP2;ratioP2
24421;SDS011;12600;53.326;-6.298;2023-10-13T10:47:48;12.85;;;1.92;;
24421;SDS011;12600;53.326;-6.298;2023-10-13T10:50:51;16.75;;;3.65;;
24421;SDS011;12600;53.326;-6.298;2023-10-13T10:53:42;15.63;;;2.88;;
24421;SDS011;12600;53.326;-6.298;2023-10-13T10:56:36;17.63;;;2.80;;
24421;SDS011;12600;53.326;-6.298;2023-10-13T10:59:26;14.63;;;3.22;;
24421;SDS011;12600;53.326;-6.298;2023-10-13T11:02:29;12.40;;;2.53;;
24421;SDS011;12600;53.326;-6.298;2023-10-13T11:05:21;18.38;;;2.42;;
24421;SDS011;12600;53.326;-6.298;2023-10-13T11:08:21;18.93;;;3.40;;
24421;SDS011;12600;53.326;-6.298;2023-10-13T11:11:28;17.02;;;2.20;;
24421;SDS011;12600;53.326;-6.298;2023-10-13T11:14:23;14.80;;;2.22;;
24421;SDS011;12600;53.326;-6.298;2023-10-13T11:17:19;15.95;;;2.50;;
24421;SDS011;12600;53.326;-6.298;2023-10-13T11:20:13;12.75;;;2.42;;
24421;SDS011;12600;53.326;-6.298;2023-10-13T11:23:14;17.88;;;3.05;;
24421;SDS011;12600;53.326;-6.298;2023-10-13T11:26:04;17.60;;;2.80;;
24421;SDS011;12600;53.326;-6.298;2023-10-13T11:28:54;16.15;;;2.72;;
24421;SDS011;12600;53.326;-6.298;2023-10-13T11:31:46;16.13;;;3.08;;
24421;SDS011;12600;53.326;-6.298;2023-10-13T11:34:42;16.00;;;3.22;;
24421;SDS011;12600;53.326;-6.298;2023-10-13T11:37:32;15.30;;;2.72;;
24421;SDS011;12600;53.326;-6.298;2023-10-13T11:40:32;14.73;;;2.72;;
24421;SDS011;12600;53.326;-6.298;2023-10-13T11:43:54;17.13;;;2.50;;
24421;SDS011;12600;53.326;-6.298;2023-10-13T11:47:09;15.50;;;2.92;;
24421;SDS011;12600;53.326;-6.298;2023-10-13T11:50:12;19.48;;;2.70;;
24421;SDS011;12600;53.326;-6.298;2023-10-13T11:53:14;13.75;;;2.30;;
24421;SDS011;12600;53.326;-6.298;2023-10-13T11:56:04;13.77;;;2.35;;
24421;SDS011;12600;53.326;-6.298;2023-10-13T11:58:56;20.35;;;2.72;;
24421;SDS011;12600;53.326;-6.298;2023-10-13T12:01:49;14.63;;;2.60;;
24421;SDS011;12600;53.326;-6.298;2023-10-13T12:04:57;14.57;;;2.67;;
24421;SDS011;12600;53.326;-6.298;2023-10-13T12:07:47;12.30;;;2.30;;
24421;SDS011;12600;53.326;-6.298;2023-10-13T12:10:39;16.50;;;2.58;;
24421;SDS011;12600;53.326;-6.298;2023-10-13T12:13:38;13.32;;;1.90;;
24421;SDS011;12600;53.326;-6.298;2023-10-13T12:16:27;15.60;;;2.92;;
24421;SDS011;12600;53.326;-6.298;2023-10-13T12:19:22;15.75;;;3.00;;
24421;SDS011;12600;53.326;-6.298;2023-10-13T12:22:14;11.15;;;1.92;;
24421;SDS011;12600;53.326;-6.298;2023-10-13T12:25:12;12.40;;;2.35;;
24421;SDS011;12600;53.326;-6.298;2023-10-13T12:28:12;13.30;;;2.22;;
24421;SDS011;12600;53.326;-6.298;2023-10-13T12:31:07;12.48;;;1.80;;
24421;SDS011;12600;53.326;-6.298;2023-10-13T12:33:59;9.48;;;2.08;;
24421;SDS011;12600;53.326;-6.298;2023-10-13T12:37:03;12.05;;;1.77;;
24421;SDS011;12600;53.326;-6.298;2023-10-13T12:40:12;14.52;;;2.10;;
24421;SDS011;12600;53.326;-6.298;2023-10-13T12:43:20;11.20;;;2.30;;
24421;SDS011;12600;53.326;-6.298;2023-10-13T12:46:31;17.15;;;2.20;;
24421;SDS011;12600;53.326;-6.298;2023-10-13T12:49:38;11.70;;;1.85;;
24421;SDS011;12600;53.326;-6.298;2023-10-13T12:52:39;11.75;;;2.10;;
24421;SDS011;12600;53.326;-6.298;2023-10-13T12:55:33;6.68;;;1.60;;
24421;SDS011;12600;53.326;-6.298;2023-10-13T12:58:25;8.70;;;2.20;;
24421;SDS011;12600;53.326;-6.298;2023-10-13T13:01:15;12.25;;;1.92;;
24421;SDS011;12600;53.326;-6.298;2023-10-13T13:04:09;11.77;;;2.05;;
24421;SDS011;12600;53.326;-6.298;2023-10-13T13:07:07;9.50;;;1.60;;
24421;SDS011;12600;53.326;-6.298;2023-10-13T13:10:00;7.20;;;1.88;;
24421;SDS011;12600;53.326;-6.298;2023-10-13T13:12:50;7.43;;;1.50;;
24421;SDS011;12600;53.326;-6.298;2023-10-13T13:15:39;7.38;;;1.70;;
24421;SDS011;12600;53.326;-6.298;2023-10-13T13:18:29;9.05;;;2.10;;
24421;SDS011;12600;53.326;-6.298;2023-10-13T13:21:20;8.15;;;1.77;;
24421;SDS011;12600;53.326;-6.298;2023-10-13T13:24:11;8.93;;;1.73;;
24421;SDS011;12600;53.326;-6.298;2023-10-13T13:27:01;7.97;;;1.80;;
24421;SDS011;12600;53.326;-6.298;2023-10-13T13:29:52;11.00;;;1.67;;
24421;SDS011;12600;53.326;-6.298;2023-10-13T13:32:44;8.40;;;1.42;;
24421;SDS011;12600;53.326;-6.298;2023-10-13T13:35:35;15.07;;;2.88;;
24421;SDS011;12600;53.326;-6.298;2023-10-13T13:38:25;8.25;;;1.70;;
24421;SDS011;12600;53.326;-6.298;2023-10-13T13:41:19;9.68;;;1.52;;
24421;SDS011;12600;53.326;-6.298;2023-10-13T13:44:08;7.05;;;1.67;;
24421;SDS011;12600;53.326;-6.298;2023-10-13T13:47:01;8.85;;;1.48;;
24421;SDS011;12600;53.326;-6.298;2023-10-13T13:49:59;8.10;;;1.48;;
24421;SDS011;12600;53.326;-6.298;2023-10-13T13:52:53;7.05;;;1.35;;
24421;SDS011;12600;53.326;-6.298;2023-10-13T13:55:45;6.88;;;1.60;;
24421;SDS011;12600;53.326;-6.298;2023-10-13T13:58:38;8.20;;;1.90;;
24421;SDS011;12600;53.326;-6.298;2023-10-13T14:01:27;11.05;;;2.03;;
24421;SDS011;12600;53.326;-6.298;2023-10-13T14:04:17;11.60;;;2.28;;
24421;SDS011;12600;53.326;-6.298;2023-10-13T14:07:07;9.68;;;2.00;;
24421;SDS011;12600;53.326;-6.298;2023-10-13T14:09:56;11.00;;;1.63;;
24421;SDS011;12600;53.326;-6.298;2023-10-13T14:12:55;10.27;;;1.60;;
24421;SDS011;12600;53.326;-6.298;2023-10-13T14:15:53;7.90;;;1.60;;
24421;SDS011;12600;53.326;-6.298;2023-10-13T14:18:44;9.88;;;1.60;;
24421;SDS011;12600;53.326;-6.298;2023-10-13T14:21:33;13.02;;;2.08;;
24421;SDS011;12600;53.326;-6.298;2023-10-13T14:24:23;9.85;;;1.90;;
24421;SDS011;12600;53.326;-6.298;2023-10-13T14:27:15;7.10;;;1.45;;
24421;SDS011;12600;53.326;-6.298;2023-10-13T14:30:08;6.82;;;1.13;;
24421;SDS011;12600;53.326;-6.298;2023-10-13T14:33:07;7.55;;;1.73;;
24421;SDS011;12600;53.326;-6.298;2023-10-13T14:35:58;8.40;;;1.50;;
24421;SDS011;12600;53.326;-6.298;2023-10-13T14:38:52;11.02;;;1.90;;
24421;SDS011;12600;53.326;-6.298;2023-10-13T14:41:41;8.52;;;1.80;;
24421;SDS011;12600;53.326;-6.298;2023-10-13T14:44:34;9.18;;;1.75;;
24421;SDS011;12600;53.326;-6.298;2023-10-13T14:47:26;7.15;;;1.65;;
24421;SDS011;12600;53.326;-6.298;2023-10-13T14:50:15;6.63;;;1.33;;
24421;SDS011;12600;53.326;-6.298;2023-10-13T14:53:08;9.50;;;1.70;;
24421;SDS011;12600;53.326;-6.298;2023-10-13T14:56:00;8.48;;;2.00;;
24421;SDS011;12600;53.326;-6.298;2023-10-13T14:58:52;8.63;;;1.70;;
24421;SDS011;12600;53.326;-6.298;2023-10-13T15:01:42;13.05;;;1.92;;
24421;SDS011;12600;53.326;-6.298;2023-10-13T15:04:35;6.43;;;1.30;;
24421;SDS011;12600;53.326;-6.298;2023-10-13T15:07:25;9.48;;;1.90;;
24421;SDS011;12600;53.326;-6.298;2023-10-13T15:10:15;10.05;;;2.28;;
24421;SDS011;12600;53.326;-6.298;2023-10-13T15:13:05;15.90;;;1.90;;
24421;SDS011;12600;53.326;-6.298;2023-10-13T15:15:56;6.60;;;1.75;;
24421;SDS011;12600;53.326;-6.298;2023-10-13T15:18:46;9.20;;;1.80;;
24421;SDS011;12600;53.326;-6.298;2023-10-13T15:21:40;9.10;;;1.52;;
24421;SDS011;12600;53.326;-6.298;2023-10-13T15:24:30;8.35;;;1.45;;
24421;SDS011;12600;53.326;-6.298;2023-10-13T15:27:29;9.80;;;1.40;;
24421;SDS011;12600;53.326;-6.298;2023-10-13T15:30:19;11.25;;;2.05;;
24421;SDS011;12600;53.326;-6.298;2023-10-13T15:33:11;9.55;;;1.75;;
24421;SDS011;12600;53.326;-6.298;2023-10-13T15:36:00;5.43;;;1.55;;
24421;SDS011;12600;53.326;-6.298;2023-10-13T15:38:52;8.95;;;2.42;;
24421;SDS011;12600;53.326;-6.298;2023-10-13T15:41:43;22.98;;;3.08;;
24421;SDS011;12600;53.326;-6.298;2023-10-13T15:44:33;13.60;;;1.90;;
24421;SDS011;12600;53.326;-6.298;2023-10-13T15:47:23;8.07;;;1.80;;
24421;SDS011;12600;53.326;-6.298;2023-10-13T15:50:15;8.27;;;1.77;;
24421;SDS011;12600;53.326;-6.298;2023-10-13T15:53:09;8.30;;;1.58;;
24421;SDS011;12600;53.326;-6.298;2023-10-13T15:56:04;9.23;;;1.67;;
24421;SDS011;12600;53.326;-6.298;2023-10-13T15:58:58;9.23;;;1.75;;
24421;SDS011;12600;53.326;-6.298;2023-10-13T16:01:49;10.18;;;2.00;;
24421;SDS011;12600;53.326;-6.298;2023-10-13T16:04:44;5.90;;;1.77;;
24421;SDS011;12600;53.326;-6.298;2023-10-13T16:07:33;7.75;;;1.10;;
24421;SDS011;12600;53.326;-6.298;2023-10-13T16:10:24;8.07;;;1.50;;
24421;SDS011;12600;53.326;-6.298;2023-10-13T16:13:17;7.32;;;1.45;;
24421;SDS011;12600;53.326;-6.298;2023-10-13T16:16:13;5.63;;;1.55;;
24421;SDS011;12600;53.326;-6.298;2023-10-13T16:19:04;7.80;;;1.45;;
24421;SDS011;12600;53.326;-6.298;2023-10-13T16:21:54;7.97;;;1.60;;
24421;SDS011;12600;53.326;-6.298;2023-10-13T16:24:43;7.47;;;1.50;;
24421;SDS011;12600;53.326;-6.298;2023-10-13T16:27:35;5.97;;;1.30;;
24421;SDS011;12600;53.326;-6.298;2023-10-13T16:30:28;5.00;;;1.30;;
24421;SDS011;12600;53.326;-6.298;2023-10-13T16:33:17;7.65;;;1.15;;
24421;SDS011;12600;53.326;-6.298;2023-10-13T16:36:07;8.23;;;1.13;;
24421;SDS011;12600;53.326;-6.298;2023-10-13T16:38:58;6.15;;;1.30;;
24421;SDS011;12600;53.326;-6.298;2023-10-13T16:41:48;7.93;;;1.90;;
24421;SDS011;12600;53.326;-6.298;2023-10-13T16:44:39;7.53;;;1.60;;
24421;SDS011;12600;53.326;-6.298;2023-10-13T16:47:31;4.82;;;1.02;;
24421;SDS011;12600;53.326;-6.298;2023-10-13T16:50:20;7.28;;;1.20;;
24421;SDS011;12600;53.326;-6.298;2023-10-13T16:53:10;4.95;;;1.20;;
24421;SDS011;12600;53.326;-6.298;2023-10-13T16:55:59;7.18;;;1.30;;
24421;SDS011;12600;53.326;-6.298;2023-10-13T16:58:49;5.22;;;1.30;;
24421;SDS011;12600;53.326;-6.298;2023-10-13T17:01:41;11.40;;;1.83;;
24421;SDS011;12600;53.326;-6.298;2023-10-13T17:04:32;5.18;;;1.30;;
24421;SDS011;12600;53.326;-6.298;2023-10-13T17:07:22;6.90;;;1.40;;
24421;SDS011;12600;53.326;-6.298;2023-10-13T17:10:12;5.95;;;1.40;;
24421;SDS011;12600;53.326;-6.298;2023-10-13T17:13:02;6.43;;;1.63;;
24421;SDS011;12600;53.326;-6.298;2023-10-13T17:15:52;10.68;;;4.55;;
24421;SDS011;12600;53.326;-6.298;2023-10-13T17:18:42;8.93;;;3.25;;
24421;SDS011;12600;53.326;-6.298;2023-10-13T17:21:33;7.13;;;2.42;;
24421;SDS011;12600;53.326;-6.298;2023-10-13T17:24:23;9.07;;;2.38;;
24421;SDS011;12600;53.326;-6.298;2023-10-13T17:30:05;6.70;;;1.63;;
24421;SDS011;12600;53.326;-6.298;2023-10-13T17:32:57;6.25;;;1.63;;
24421;SDS011;12600;53.326;-6.298;2023-10-13T17:35:46;10.65;;;1.88;;
24421;SDS011;12600;53.326;-6.298;2023-10-13T17:38:38;8.25;;;3.03;;
24421;SDS011;12600;53.326;-6.298;2023-10-13T17:41:27;12.07;;;2.70;;
24421;SDS011;12600;53.326;-6.298;2023-10-13T17:44:19;11.75;;;2.35;;
24421;SDS011;12600;53.326;-6.298;2023-10-13T17:47:10;8.18;;;2.00;;
24421;SDS011;12600;53.326;-6.298;2023-10-13T17:50:05;8.10;;;2.25;;
24421;SDS011;12600;53.326;-6.298;2023-10-13T17:52:56;9.55;;;2.88;;
24421;SDS011;12600;53.326;-6.298;2023-10-13T17:55:46;13.23;;;2.80;;
24421;SDS011;12600;53.326;-6.298;2023-10-13T17:58:37;12.05;;;2.72;;
24421;SDS011;12600;53.326;-6.298;2023-10-13T18:01:30;9.55;;;2.70;;
24421;SDS011;12600;53.326;-6.298;2023-10-13T18:04:20;10.07;;;3.00;;
24421;SDS011;12600;53.326;-6.298;2023-10-13T18:07:09;10.23;;;3.22;;
24421;SDS011;12600;53.326;-6.298;2023-10-13T18:09:59;9.52;;;2.80;;
24421;SDS011;12600;53.326;-6.298;2023-10-13T18:12:50;13.52;;;4.65;;
24421;SDS011;12600;53.326;-6.298;2023-10-13T18:15:40;13.82;;;4.57;;
24421;SDS011;12600;53.326;-6.298;2023-10-13T18:18:30;15.35;;;4.10;;
24421;SDS011;12600;53.326;-6.298;2023-10-13T18:21:20;13.48;;;3.97;;
24421;SDS011;12600;53.326;-6.298;2023-10-13T18:24:10;9.43;;;3.38;;
24421;SDS011;12600;53.326;-6.298;2023-10-13T18:26:59;12.40;;;3.20;;
24421;SDS011;12600;53.326;-6.298;2023-10-13T18:29:50;7.95;;;3.00;;
24421;SDS011;12600;53.326;-6.298;2023-10-13T18:32:40;11.52;;;3.05;;
24421;SDS011;12600;53.326;-6.298;2023-10-13T18:35:30;13.15;;;3.30;;
24421;SDS011;12600;53.326;-6.298;2023-10-13T18:38:19;8.45;;;3.38;;
24421;SDS011;12600;53.326;-6.298;2023-10-13T18:41:10;12.73;;;3.85;;
24421;SDS011;12600;53.326;-6.298;2023-10-13T18:44:01;17.30;;;3.88;;
24421;SDS011;12600;53.326;-6.298;2023-10-13T18:46:58;14.15;;;3.40;;
24421;SDS011;12600;53.326;-6.298;2023-10-13T18:49:48;10.63;;;3.55;;
24421;SDS011;12600;53.326;-6.298;2023-10-13T18:52:37;12.43;;;3.17;;
24421;SDS011;12600;53.326;-6.298;2023-10-13T18:55:29;11.23;;;3.53;;
24421;SDS011;12600;53.326;-6.298;2023-10-13T18:58:18;11.40;;;2.90;;
24421;SDS011;12600;53.326;-6.298;2023-10-13T19:01:08;8.63;;;2.90;;
24421;SDS011;12600;53.326;-6.298;2023-10-13T19:04:02;12.18;;;3.88;;
24421;SDS011;12600;53.326;-6.298;2023-10-13T19:06:55;19.23;;;5.50;;
24421;SDS011;12600;53.326;-6.298;2023-10-13T19:09:46;14.23;;;4.57;;
24421;SDS011;12600;53.326;-6.298;2023-10-13T19:12:36;12.40;;;4.78;;
24421;SDS011;12600;53.326;-6.298;2023-10-13T19:15:28;13.82;;;4.93;;
24421;SDS011;12600;53.326;-6.298;2023-10-13T19:18:23;8.50;;;3.25;;
24421;SDS011;12600;53.326;-6.298;2023-10-13T19:21:14;14.02;;;4.28;;
24421;SDS011;12600;53.326;-6.298;2023-10-13T19:24:06;11.00;;;4.00;;
24421;SDS011;12600;53.326;-6.298;2023-10-13T19:26:57;13.00;;;5.18;;
24421;SDS011;12600;53.326;-6.298;2023-10-13T19:29:46;12.68;;;4.13;;
24421;SDS011;12600;53.326;-6.298;2023-10-13T19:32:36;21.30;;;9.02;;
24421;SDS011;12600;53.326;-6.298;2023-10-13T19:35:27;20.55;;;9.82;;
24421;SDS011;12600;53.326;-6.298;2023-10-13T19:38:18;8.13;;;3.53;;
24421;SDS011;12600;53.326;-6.298;2023-10-13T19:41:14;11.13;;;3.10;;
24421;SDS011;12600;53.326;-6.298;2023-10-13T19:44:05;11.27;;;3.20;;
24421;SDS011;12600;53.326;-6.298;2023-10-13T19:46:54;11.73;;;3.50;;
24421;SDS011;12600;53.326;-6.298;2023-10-13T19:49:43;11.32;;;3.40;;
24421;SDS011;12600;53.326;-6.298;2023-10-13T19:52:33;12.60;;;3.05;;
24421;SDS011;12600;53.326;-6.298;2023-10-13T19:55:23;13.95;;;4.07;;
24421;SDS011;12600;53.326;-6.298;2023-10-13T19:58:13;13.18;;;3.60;;
24421;SDS011;12600;53.326;-6.298;2023-10-13T20:01:06;18.95;;;4.85;;
24421;SDS011;12600;53.326;-6.298;2023-10-13T20:03:56;10.85;;;3.50;;
24421;SDS011;12600;53.326;-6.298;2023-10-13T20:06:46;14.20;;;3.90;;
24421;SDS011;12600;53.326;-6.298;2023-10-13T20:09:42;13.32;;;4.40;;
24421;SDS011;12600;53.326;-6.298;2023-10-13T20:12:33;15.27;;;3.50;;
24421;SDS011;12600;53.326;-6.298;2023-10-13T20:15:28;12.82;;;3.72;;
24421;SDS011;12600;53.326;-6.298;2023-10-13T20:18:18;17.48;;;3.55;;
24421;SDS011;12600;53.326;-6.298;2023-10-13T20:21:08;12.85;;;3.63;;
24421;SDS011;12600;53.326;-6.298;2023-10-13T20:23:58;11.23;;;3.78;;
24421;SDS011;12600;53.326;-6.298;2023-10-13T20:26:49;12.60;;;4.25;;
24421;SDS011;12600;53.326;-6.298;2023-10-13T20:29:40;14.43;;;4.15;;
24421;SDS011;12600;53.326;-6.298;2023-10-13T20:32:29;8.75;;;2.92;;
24421;SDS011;12600;53.326;-6.298;2023-10-13T20:35:21;13.93;;;3.45;;
24421;SDS011;12600;53.326;-6.298;2023-10-13T20:38:11;12.32;;;3.20;;
24421;SDS011;12600;53.326;-6.298;2023-10-13T20:41:01;13.35;;;3.30;;
24421;SDS011;12600;53.326;-6.298;2023-10-13T20:43:54;9.02;;;2.70;;
24421;SDS011;12600;53.326;-6.298;2023-10-13T20:46:45;12.50;;;3.00;;
24421;SDS011;12600;53.326;-6.298;2023-10-13T20:49:34;13.65;;;3.28;;
24421;SDS011;12600;53.326;-6.298;2023-10-13T20:52:24;12.25;;;3.20;;
24421;SDS011;12600;53.326;-6.298;2023-10-13T20:55:14;10.15;;;3.35;;
24421;SDS011;12600;53.326;-6.298;2023-10-13T20:58:04;11.40;;;3.67;;
24421;SDS011;12600;53.326;-6.298;2023-10-13T21:00:54;15.15;;;3.63;;
24421;SDS011;12600;53.326;-6.298;2023-10-13T21:03:45;16.42;;;4.38;;
24421;SDS011;12600;53.326;-6.298;2023-10-13T21:06:36;10.80;;;3.80;;
24421;SDS011;12600;53.326;-6.298;2023-10-13T21:09:28;11.63;;;3.63;;
24421;SDS011;12600;53.326;-6.298;2023-10-13T21:12:17;14.73;;;3.17;;
24421;SDS011;12600;53.326;-6.298;2023-10-13T21:15:07;11.60;;;3.05;;
24421;SDS011;12600;53.326;-6.298;2023-10-13T21:18:03;12.85;;;2.83;;
24421;SDS011;12600;53.326;-6.298;2023-10-13T21:20:55;10.50;;;3.47;;
24421;SDS011;12600;53.326;-6.298;2023-10-13T21:23:54;12.10;;;3.00;;
24421;SDS011;12600;53.326;-6.298;2023-10-13T21:26:43;9.02;;;2.72;;
24421;SDS011;12600;53.326;-6.298;2023-10-13T21:29:36;9.80;;;3.28;;
24421;SDS011;12600;53.326;-6.298;2023-10-13T21:32:25;15.40;;;3.38;;
24421;SDS011;12600;53.326;-6.298;2023-10-13T21:35:16;14.85;;;4.00;;
24421;SDS011;12600;53.326;-6.298;2023-10-13T21:38:08;12.18;;;3.20;;
24421;SDS011;12600;53.326;-6.298;2023-10-13T21:41:03;10.80;;;3.63;;
24421;SDS011;12600;53.326;-6.298;2023-10-13T21:43:53;10.90;;;3.20;;
24421;SDS011;12600;53.326;-6.298;2023-10-13T21:46:45;8.38;;;2.67;;
24421;SDS011;12600;53.326;-6.298;2023-10-13T21:49:35;10.10;;;3.20;;
24421;SDS011;12600;53.326;-6.298;2023-10-13T21:52:24;7.32;;;3.20;;
24421;SDS011;12600;53.326;-6.298;2023-10-13T21:55:15;10.85;;;2.97;;
24421;SDS011;12600;53.326;-6.298;2023-10-13T21:58:06;9.80;;;2.70;;
24421;SDS011;12600;53.326;-6.298;2023-10-13T22:00:55;10.82;;;3.25;;
24421;SDS011;12600;53.326;-6.298;2023-10-13T22:03:46;12.48;;;3.53;;
24421;SDS011;12600;53.326;-6.298;2023-10-13T22:06:36;8.55;;;3.00;;
24421;SDS011;12600;53.326;-6.298;2023-10-13T22:09:28;14.23;;;3.20;;
24421;SDS011;12600;53.326;-6.298;2023-10-13T22:12:19;11.27;;;3.35;;
24421;SDS011;12600;53.326;-6.298;2023-10-13T22:15:09;9.15;;;2.75;;
24421;SDS011;12600;53.326;-6.298;2023-10-13T22:17:59;10.02;;;3.13;;
24421;SDS011;12600;53.326;-6.298;2023-10-13T22:20:50;11.40;;;3.17;;
24421;SDS011;12600;53.326;-6.298;2023-10-13T22:23:41;12.90;;;3.10;;
24421;SDS011;12600;53.326;-6.298;2023-10-13T22:26:30;10.48;;;3.00;;
24421;SDS011;12600;53.326;-6.298;2023-10-13T22:29:21;6.75;;;2.20;;
24421;SDS011;12600;53.326;-6.298;2023-10-13T22:32:10;8.25;;;2.70;;
24421;SDS011;12600;53.326;-6.298;2023-10-13T22:35:00;15.38;;;2.90;;
24421;SDS011;12600;53.326;-6.298;2023-10-13T22:37:50;11.60;;;3.03;;
24421;SDS011;12600;53.326;-6.298;2023-10-13T22:40:40;13.55;;;3.53;;
24421;SDS011;12600;53.326;-6.298;2023-10-13T22:43:30;8.82;;;2.97;;
24421;SDS011;12600;53.326;-6.298;2023-10-13T22:46:21;10.20;;;3.17;;
24421;SDS011;12600;53.326;-6.298;2023-10-13T22:49:11;9.95;;;3.08;;
24421;SDS011;12600;53.326;-6.298;2023-10-13T22:52:02;14.02;;;3.60;;
24421;SDS011;12600;53.326;-6.298;2023-10-13T22:54:52;12.80;;;3.78;;
24421;SDS011;12600;53.326;-6.298;2023-10-13T22:57:41;11.45;;;3.28;;
24421;SDS011;12600;53.326;-6.298;2023-10-13T23:00:30;11.93;;;2.80;;
24421;SDS011;12600;53.326;-6.298;2023-10-13T23:03:37;9.95;;;2.88;;
24421;SDS011;12600;53.326;-6.298;2023-10-13T23:06:29;11.57;;;2.78;;
24421;SDS011;12600;53.326;-6.298;2023-10-13T23:09:21;11.73;;;3.00;;
24421;SDS011;12600;53.326;-6.298;2023-10-13T23:12:12;10.40;;;2.60;;
24421;SDS011;12600;53.326;-6.298;2023-10-13T23:15:03;12.23;;;2.35;;
24421;SDS011;12600;53.326;-6.298;2023-10-13T23:17:59;11.20;;;2.70;;
24421;SDS011;12600;53.326;-6.298;2023-10-13T23:20:50;9.82;;;2.17;;
24421;SDS011;12600;53.326;-6.298;2023-10-13T23:23:40;10.32;;;2.60;;
24421;SDS011;12600;53.326;-6.298;2023-10-13T23:26:31;8.70;;;2.60;;
24421;SDS011;12600;53.326;-6.298;2023-10-13T23:29:21;10.65;;;2.50;;
24421;SDS011;12600;53.326;-6.298;2023-10-13T23:32:12;14.20;;;2.78;;
24421;SDS011;12600;53.326;-6.298;2023-10-13T23:35:03;14.73;;;2.63;;
24421;SDS011;12600;53.326;-6.298;2023-10-13T23:37:55;10.07;;;2.70;;
24421;SDS011;12600;53.326;-6.298;2023-10-13T23:40:46;13.43;;;3.13;;
24421;SDS011;12600;53.326;-6.298;2023-10-13T23:43:37;11.77;;;2.67;;
24421;SDS011;12600;53.326;-6.298;2023-10-13T23:46:32;10.68;;;2.67;;
24421;SDS011;12600;53.326;-6.298;2023-10-13T23:49:22;14.10;;;2.92;;
24421;SDS011;12600;53.326;-6.298;2023-10-13T23:52:15;13.15;;;3.20;;
24421;SDS011;12600;53.326;-6.298;2023-10-13T23:55:08;8.88;;;2.47;;
24421;SDS011;12600;53.326;-6.298;2023-10-13T23:58:05;10.13;;;3.10;;
